Time;durP1;ratioP1;P1;durP2;ratioP2;P2;SDS_P1;SDS_P2;PMS_P1;PMS_P2;Temp;Humidity;BMP_temperature;BMP_pressure;BME280_temperature;BME280_humidity;BME280_pressure;Samples;Min_cycle;Max_cycle;Signal;HPM_P1;HPM_P2
2021/08/13 00:01:20;;;;;;;10.25;5.40;;;;;;;19.41;73.27;99026.22;5019211;28;20498;-66
2021/08/13 00:03:46;;;;;;;12.18;5.38;;;;;;;19.40;73.29;99029.97;5035540;28;20101;-66
2021/08/13 00:06:12;;;;;;;12.80;5.55;;;;;;;19.40;73.20;99029.97;5002549;28;20497;-67
2021/08/13 00:08:38;;;;;;;10.10;5.57;;;;;;;19.37;73.38;99025.00;5035597;28;20518;-66
2021/08/13 00:11:04;;;;;;;7.85;5.30;;;;;;;19.32;73.32;99024.91;5051949;28;20036;-66
2021/08/13 00:13:30;;;;;;;9.75;5.90;;;;;;;19.28;73.72;99025.59;5019473;28;20563;-66
2021/08/13 00:15:57;;;;;;;10.82;5.60;;;;;;;19.22;73.63;99035.34;5052147;28;20041;-66
2021/08/13 00:18:23;;;;;;;8.32;5.25;;;;;;;19.22;73.62;99027.28;5018692;28;20912;-66
2021/08/13 00:20:48;;;;;;;10.30;5.50;;;;;;;19.18;73.72;99026.09;5018792;28;20057;-66
2021/08/13 00:23:14;;;;;;;8.13;5.85;;;;;;;19.08;73.90;99028.50;5035629;28;20055;-66
2021/08/13 00:25:40;;;;;;;46.55;36.60;;;;;;;19.02;74.40;99028.59;5018710;28;20491;-66
2021/08/13 00:28:06;;;;;;;38.58;30.38;;;;;;;18.92;74.49;99029.13;5034539;28;20091;-66
2021/08/13 00:30:32;;;;;;;8.20;5.47;;;;;;;18.86;74.63;99029.19;5018940;28;20052;-66
2021/08/13 00:32:58;;;;;;;7.72;5.82;;;;;;;18.79;74.85;99028.47;5035600;28;20053;-66
2021/08/13 00:35:24;;;;;;;11.05;6.28;;;;;;;18.76;75.16;99037.78;5018925;28;20053;-66
2021/08/13 00:37:50;;;;;;;11.75;6.28;;;;;;;18.71;75.26;99034.16;5018260;28;20049;-66
2021/08/13 00:40:16;;;;;;;8.20;5.57;;;;;;;18.62;75.29;99032.81;5034840;28;20496;-66
2021/08/13 00:42:43;;;;;;;10.55;5.80;;;;;;;18.58;75.66;99032.44;5019138;28;20051;-66
2021/08/13 00:45:10;;;;;;;13.02;7.68;;;;;;;18.57;75.50;99036.16;5018464;28;20056;-66
2021/08/13 00:47:47;;;;;;;11.18;5.38;;;;;;;18.54;75.71;99035.78;5035774;28;20048;-66
2021/08/13 00:50:23;;;;;;;7.25;5.22;;;;;;;18.50;75.78;99039.97;5036079;28;20045;-66
2021/08/13 00:52:53;;;;;;;11.10;5.90;;;;;;;18.45;75.92;99029.91;5002929;28;20098;-67
2021/08/13 00:55:20;;;;;;;10.23;5.88;;;;;;;18.43;76.20;99024.72;5017971;28;20053;-67
2021/08/13 00:58:06;;;;;;;7.80;5.50;;;;;;;18.40;76.32;99027.84;5023099;28;20049;-67
2021/08/13 01:00:45;;;;;;;8.80;5.82;;;;;;;18.29;76.09;99023.19;5036240;28;20047;-67
2021/08/13 01:03:11;;;;;;;8.75;5.45;;;;;;;18.34;76.11;99030.59;5041681;28;20045;-67
2021/08/13 01:05:40;;;;;;;14.90;5.57;;;;;;;18.33;76.10;99032.44;5037394;28;20052;-67
2021/08/13 01:08:08;;;;;;;10.30;6.00;;;;;;;18.29;76.27;99030.44;5032982;28;20088;-67
2021/08/13 01:10:53;;;;;;;9.35;6.03;;;;;;;18.31;76.39;99026.47;5015135;28;20084;-67
2021/08/13 01:13:30;;;;;;;9.38;6.00;;;;;;;18.26;76.43;99029.00;5049082;28;20053;-67
2021/08/13 01:16:00;;;;;;;11.48;6.00;;;;;;;18.23;76.30;99017.88;5048958;28;20077;-67
2021/08/13 01:18:33;;;;;;;10.05;5.45;;;;;;;18.22;76.38;99019.72;5048706;28;20041;-67
2021/08/13 01:21:09;;;;;;;9.60;5.65;;;;;;;18.19;76.54;99020.16;5033285;28;20057;-67
2021/08/13 01:23:54;;;;;;;9.77;5.20;;;;;;;18.21;76.40;99023.47;5032617;28;20136;-67
2021/08/13 01:26:29;;;;;;;8.10;4.85;;;;;;;18.23;76.12;99020.56;5017743;28;20866;-67
2021/08/13 01:29:32;;;;;;;8.80;4.60;;;;;;;18.24;76.05;99020.34;5033773;28;20041;-67
2021/08/13 01:32:15;;;;;;;10.55;5.10;;;;;;;18.18;75.92;99009.66;5033621;28;20183;-67
2021/08/13 01:34:49;;;;;;;8.18;5.10;;;;;;;18.25;75.77;99026.53;5034518;28;20041;-67
2021/08/13 01:37:20;;;;;;;7.30;4.95;;;;;;;18.20;75.91;99021.81;5034314;28;20052;-67
2021/08/13 01:39:55;;;;;;;10.13;5.53;;;;;;;18.20;76.04;99021.00;5018405;28;20048;-66
2021/08/13 01:42:22;;;;;;;12.10;5.93;;;;;;;18.16;76.10;99031.38;5017592;28;20095;-65
2021/08/13 01:44:48;;;;;;;10.52;5.85;;;;;;;18.10;76.07;99034.94;5033511;28;20544;-66
2021/08/13 01:47:15;;;;;;;7.22;4.57;;;;;;;18.14;76.22;99036.13;5033829;28;20045;-66
2021/08/13 01:49:44;;;;;;;12.63;5.20;;;;;;;18.25;75.66;99038.09;5049920;28;20136;-66
2021/08/13 01:52:11;;;;;;;10.07;5.47;;;;;;;18.14;75.57;99029.97;5050199;28;20076;-66
2021/08/13 01:54:38;;;;;;;9.20;4.68;;;;;;;18.21;75.45;99036.91;5050043;28;20047;-66
2021/08/13 01:57:04;;;;;;;9.73;4.38;;;;;;;18.23;75.08;99034.84;5049955;28;20057;-67
2021/08/13 01:59:33;;;;;;;9.73;4.85;;;;;;;18.25;74.82;99034.63;5033404;28;20090;-67
2021/08/13 02:01:59;;;;;;;11.40;4.78;;;;;;;18.35;74.73;99045.66;5033740;28;20068;-67
2021/08/13 02:04:29;;;;;;;7.50;4.50;;;;;;;18.35;74.83;99043.81;5050260;28;20045;-67
2021/08/13 02:06:56;;;;;;;7.88;4.30;;;;;;;18.40;74.46;99048.56;5033114;28;20072;-67
2021/08/13 02:09:22;;;;;;;7.95;4.00;;;;;;;18.42;74.18;99054.50;5016468;28;20071;-67
2021/08/13 02:11:53;;;;;;;10.48;4.60;;;;;;;18.25;74.15;99050.75;5049882;28;20118;-66
2021/08/13 02:14:19;;;;;;;6.80;4.25;;;;;;;18.29;74.69;99051.94;5049854;28;20072;-67
2021/08/13 02:16:50;;;;;;;9.45;4.75;;;;;;;18.28;74.15;99055.69;5049312;28;20041;-66
2021/08/13 02:19:45;;;;;;;8.32;4.32;;;;;;;18.33;74.20;99069.25;5032974;28;20052;-66
2021/08/13 02:22:11;;;;;;;17.38;4.90;;;;;;;18.28;74.02;99061.06;5032024;28;20063;-67
2021/08/13 02:24:38;;;;;;;7.05;3.85;;;;;;;18.34;73.82;99074.41;5016228;28;20186;-66
2021/08/13 02:27:09;;;;;;;7.90;4.75;;;;;;;18.13;73.96;99056.00;5033297;28;20091;-66
2021/08/13 02:29:38;;;;;;;9.60;4.68;;;;;;;18.03;73.97;99076.34;5043881;28;20135;-67
2021/08/13 02:32:07;;;;;;;11.85;4.60;;;;;;;18.12;74.30;99077.72;5032341;28;20064;-67
2021/08/13 02:34:33;;;;;;;6.97;4.00;;;;;;;18.19;74.04;99087.38;5015877;28;20044;-68
2021/08/13 02:37:14;;;;;;;7.30;4.22;;;;;;;18.18;73.52;99083.03;5031821;28;20048;-67
2021/08/13 02:40:11;;;;;;;9.30;4.65;;;;;;;18.27;73.47;99087.09;5015488;28;20049;-67
2021/08/13 02:43:05;;;;;;;7.05;4.18;;;;;;;18.26;73.58;99098.91;5015684;28;20056;-68
2021/08/13 02:45:37;;;;;;;4.22;3.70;;;;;;;18.21;73.37;99103.28;5016055;28;20509;-68
2021/08/13 02:48:06;;;;;;;10.32;3.92;;;;;;;18.20;73.21;99099.75;5015180;28;20051;-68
2021/08/13 02:50:39;;;;;;;8.60;4.68;;;;;;;18.21;73.03;99100.59;5016832;28;20097;-67
2021/08/13 02:53:13;;;;;;;9.77;4.32;;;;;;;18.13;73.48;99103.53;5032343;28;20131;-67
2021/08/13 02:56:09;;;;;;;6.10;4.32;;;;;;;18.17;73.11;99107.47;5015251;28;20040;-66
2021/08/13 02:59:00;;;;;;;8.68;4.20;;;;;;;18.04;73.01;99112.91;5016472;28;20067;-66
2021/08/13 03:01:30;;;;;;;8.52;3.72;;;;;;;18.04;72.74;99116.44;5031877;28;20139;-67
2021/08/13 03:03:58;;;;;;;7.30;4.18;;;;;;;17.89;73.31;99121.31;5016377;28;20045;-67
2021/08/13 03:06:31;;;;;;;9.65;4.38;;;;;;;17.73;73.68;99119.13;5015637;28;20518;-67
2021/08/13 03:09:00;;;;;;;7.20;4.40;;;;;;;17.71;73.94;99104.28;5048494;28;20068;-67
2021/08/13 03:11:27;;;;;;;8.63;3.92;;;;;;;17.89;73.28;99107.88;5014569;28;20045;-67
2021/08/13 03:13:54;;;;;;;6.05;3.67;;;;;;;18.00;72.52;99117.94;5032401;28;20457;-67
2021/08/13 03:16:24;;;;;;;7.10;3.43;;;;;;;18.08;72.50;99114.16;5033062;28;20079;-67
2021/08/13 03:18:52;;;;;;;14.70;4.07;;;;;;;18.12;72.09;99121.56;5016473;28;20044;-67
2021/08/13 03:21:19;;;;;;;7.05;3.60;;;;;;;18.06;71.90;99124.28;5032727;28;20533;-66
2021/08/13 03:23:45;;;;;;;4.45;3.72;;;;;;;18.09;72.11;99126.53;5032427;28;20049;-67
2021/08/13 03:26:12;;;;;;;7.50;3.92;;;;;;;18.03;72.03;99128.25;5015952;28;20075;-67
2021/08/13 03:28:38;;;;;;;5.22;3.92;;;;;;;18.08;71.82;99136.44;5032515;28;20044;-67
2021/08/13 03:31:04;;;;;;;7.55;3.72;;;;;;;18.09;71.99;99135.44;4999797;28;20047;-67
2021/08/13 03:33:35;;;;;;;4.00;2.93;;;;;;;17.96;69.65;99134.69;5017382;28;20424;-67
2021/08/13 03:36:02;;;;;;;3.42;2.95;;;;;;;18.02;70.14;99140.00;5049157;28;20075;-67
2021/08/13 03:38:30;;;;;;;4.68;2.92;;;;;;;18.11;69.52;99140.59;5032634;28;20103;-67
2021/08/13 03:40:56;;;;;;;7.32;2.92;;;;;;;17.97;68.99;99141.72;5015975;28;20049;-67
2021/08/13 03:43:23;;;;;;;3.75;2.40;;;;;;;18.16;68.42;99146.09;5032606;28;20048;-67
2021/08/13 03:45:51;;;;;;;4.53;2.20;;;;;;;18.08;67.77;99157.94;5015595;28;20051;-67
2021/08/13 03:48:17;;;;;;;4.70;2.78;;;;;;;18.11;67.77;99164.78;4999966;28;20049;-68
2021/08/13 03:50:43;;;;;;;6.60;2.25;;;;;;;18.13;67.85;99154.59;5015968;28;20052;-68
2021/08/13 03:53:08;;;;;;;4.07;2.40;;;;;;;18.20;67.78;99163.47;5015777;28;20048;-68
2021/08/13 03:55:35;;;;;;;8.18;3.00;;;;;;;18.09;67.71;99161.47;5016359;28;20044;-68
2021/08/13 03:58:01;;;;;;;3.92;2.38;;;;;;;18.02;67.91;99164.19;5015663;28;20139;-67
2021/08/13 04:00:27;;;;;;;2.92;2.30;;;;;;;17.98;67.97;99149.56;5015813;28;20060;-67
2021/08/13 04:02:53;;;;;;;4.95;2.60;;;;;;;17.93;68.46;99164.66;5017474;28;20041;-67
2021/08/13 04:05:23;;;;;;;5.85;3.22;;;;;;;18.00;68.69;99166.31;5020505;28;20044;-67
2021/08/13 04:07:51;;;;;;;6.15;2.55;;;;;;;18.09;68.61;99161.47;5019530;28;20519;-67
2021/08/13 04:10:17;;;;;;;6.50;2.60;;;;;;;18.21;68.04;99160.56;5035779;28;20037;-67
2021/08/13 04:12:43;;;;;;;2.67;2.22;;;;;;;18.22;67.55;99166.78;5019275;28;20044;-67
2021/08/13 04:15:17;;;;;;;3.72;2.25;;;;;;;18.27;67.17;99159.69;5037032;28;20044;-67
2021/08/13 04:17:43;;;;;;;4.35;2.38;;;;;;;18.12;67.37;99161.88;5035698;28;20147;-67
2021/08/13 04:20:10;;;;;;;2.85;2.00;;;;;;;18.34;66.87;99155.06;5019324;28;20052;-68
2021/08/13 04:22:40;;;;;;;6.00;2.10;;;;;;;18.38;67.22;99164.38;5036054;28;20094;-68
2021/08/13 04:25:07;;;;;;;4.65;2.60;;;;;;;18.45;66.43;99165.16;5003093;28;20036;-67
2021/08/13 04:27:33;;;;;;;5.35;2.10;;;;;;;18.52;66.13;99156.19;5018924;28;20060;-67
2021/08/13 04:29:59;;;;;;;5.78;2.47;;;;;;;18.67;66.11;99157.50;5035171;28;20049;-67
2021/08/13 04:32:25;;;;;;;5.25;2.35;;;;;;;18.66;65.77;99160.41;5018636;28;20053;-67
2021/08/13 04:34:51;;;;;;;4.13;2.00;;;;;;;18.65;64.90;99151.50;5035261;28;20045;-67
2021/08/13 04:37:19;;;;;;;4.30;1.95;;;;;;;18.59;65.59;99149.72;5027616;28;20044;-63
2021/08/13 04:39:45;;;;;;;4.68;2.05;;;;;;;18.81;64.98;99156.34;5041235;28;20048;-62
2021/08/13 04:42:11;;;;;;;3.63;1.90;;;;;;;18.61;63.31;99165.63;5033679;28;20128;-61
2021/08/13 04:44:38;;;;;;;3.28;2.28;;;;;;;18.64;64.50;99160.63;5056633;28;20505;-64
2021/08/13 04:47:04;;;;;;;11.38;5.03;;;;;;;18.75;64.24;99159.09;5053645;28;20136;-62
2021/08/13 04:49:32;;;;;;;5.40;2.22;;;;;;;18.44;64.50;99151.91;5054191;28;21081;-64
2021/08/13 04:51:59;;;;;;;4.07;2.30;;;;;;;18.54;65.13;99165.72;5069949;28;20044;-63
2021/08/13 04:54:27;;;;;;;4.97;2.15;;;;;;;18.56;64.28;99152.03;5070564;28;20047;-63
2021/08/13 04:56:53;;;;;;;5.28;2.40;;;;;;;18.85;64.12;99160.22;5053134;28;20420;-63
2021/08/13 04:59:19;;;;;;;4.20;2.13;;;;;;;19.11;64.01;99165.31;5069656;28;20040;-63
2021/08/13 05:01:49;;;;;;;;;;;;;;;19.13;63.32;99171.31;5054656;28;20045;-63
2021/08/13 05:04:17;;;;;;;3.72;2.08;;;;;;;19.07;63.05;99171.38;5053824;28;19916;-62
2021/08/13 05:06:43;;;;;;;5.53;2.10;;;;;;;19.13;61.96;99179.38;5070313;28;20044;-63
2021/08/13 05:09:09;;;;;;;5.68;2.20;;;;;;;18.96;61.79;99156.78;5071633;28;20098;-62
2021/08/13 05:11:35;;;;;;;4.20;2.10;;;;;;;19.06;60.98;99175.97;5053818;28;20093;-64
2021/08/13 05:14:01;;;;;;;6.35;2.40;;;;;;;19.06;61.84;99162.50;5069182;28;20418;-64
2021/08/13 05:16:27;;;;;;;3.58;2.20;;;;;;;19.30;62.22;99177.78;5020119;28;20647;-64
2021/08/13 05:18:53;;;;;;;8.75;2.47;;;;;;;19.42;60.53;99165.19;5036843;28;20507;-63
2021/08/13 05:21:19;;;;;;;2.65;2.22;;;;;;;19.30;60.30;99166.19;5036863;28;20050;-64
2021/08/13 05:23:45;;;;;;;4.88;2.20;;;;;;;19.29;61.18;99169.94;5053835;28;20040;-64
2021/08/13 05:26:11;;;;;;;8.57;2.15;;;;;;;19.38;61.49;99184.72;5070013;28;20825;-64
2021/08/13 05:28:37;;;;;;;5.35;2.33;;;;;;;19.43;60.82;99171.41;5053730;28;20040;-64
2021/08/13 05:31:03;;;;;;;3.20;2.58;;;;;;;19.42;61.30;99180.56;5053102;28;20048;-64
2021/08/13 05:33:30;;;;;;;4.35;2.15;;;;;;;19.80;61.16;99178.41;5036477;28;20573;-64
2021/08/13 05:35:55;;;;;;;3.83;2.40;;;;;;;20.01;59.90;99186.81;5020065;28;20049;-64
2021/08/13 05:38:22;;;;;;;5.32;2.40;;;;;;;19.92;59.18;99182.78;5036978;28;20182;-64
2021/08/13 05:40:48;;;;;;;5.00;2.00;;;;;;;20.03;58.90;99187.38;5036590;28;20127;-64
2021/08/13 05:43:14;;;;;;;3.80;2.55;;;;;;;20.25;58.33;99193.09;5019444;28;20048;-64
2021/08/13 05:45:41;;;;;;;8.50;2.20;;;;;;;20.41;59.23;99186.22;5069695;28;20082;-64
2021/08/13 05:48:07;;;;;;;4.97;2.08;;;;;;;20.35;58.97;99185.28;5035807;28;20075;-65
2021/08/13 05:50:33;;;;;;;2.90;2.20;;;;;;;20.36;57.72;99188.81;5068978;28;20182;-64
2021/08/13 05:52:59;;;;;;;2.28;1.80;;;;;;;20.33;57.97;99208.16;5035571;28;20048;-64
2021/08/13 05:55:29;;;;;;;2.65;1.92;;;;;;;19.95;58.17;99200.38;5035729;28;20047;-65
2021/08/13 05:57:55;;;;;;;5.30;2.00;;;;;;;20.10;58.98;99207.00;5052005;28;20143;-64
2021/08/13 06:00:21;;;;;;;3.67;1.85;;;;;;;20.05;58.11;99204.16;5070201;28;20131;-64
2021/08/13 06:02:58;;;;;;;3.45;1.83;;;;;;;19.97;59.71;99215.25;5052904;28;20044;-64
2021/08/13 06:05:26;;;;;;;10.25;2.20;;;;;;;19.89;59.25;99199.44;5052253;28;20036;-64
2021/08/13 06:07:55;;;;;;;3.53;2.00;;;;;;;19.68;59.61;99191.00;5047341;28;20661;-64
2021/08/13 06:10:22;;;;;;;4.25;2.00;;;;;;;19.55;60.30;99202.75;5032061;28;20048;-64
2021/08/13 06:12:48;;;;;;;4.32;1.90;;;;;;;19.58;61.04;99234.63;5016152;28;20127;-64
2021/08/13 06:15:15;;;;;;;4.13;2.20;;;;;;;19.72;61.40;99235.28;5048917;28;20084;-64
2021/08/13 06:17:42;;;;;;;2.85;1.90;;;;;;;19.68;60.78;99234.13;4999508;28;20539;-64
2021/08/13 06:20:09;;;;;;;6.72;1.85;;;;;;;19.52;60.78;99214.00;5048507;28;20044;-65
2021/08/13 06:22:36;;;;;;;3.22;1.73;;;;;;;19.78;60.30;99247.88;5032532;28;20064;-66
2021/08/13 06:25:02;;;;;;;4.13;1.80;;;;;;;19.76;60.05;99242.69;4998787;28;20174;-64
2021/08/13 06:27:27;;;;;;;5.30;1.92;;;;;;;19.92;60.28;99239.41;5048654;28;20485;-64
2021/08/13 06:29:53;;;;;;;5.53;1.63;;;;;;;20.12;59.68;99241.81;5032055;28;20140;-64
2021/08/13 06:32:19;;;;;;;2.92;1.63;;;;;;;20.07;59.01;99234.41;5031821;28;20048;-64
2021/08/13 06:34:46;;;;;;;8.32;2.85;;;;;;;20.46;59.18;99253.81;5015695;28;20048;-64
2021/08/13 06:37:12;;;;;;;4.68;1.80;;;;;;;20.39;58.65;99253.09;5032244;28;20037;-64
2021/08/13 06:39:38;;;;;;;2.25;1.67;;;;;;;20.57;58.39;99253.00;5031386;28;20055;-64
2021/08/13 06:42:04;;;;;;;7.03;1.85;;;;;;;21.01;58.16;99257.91;5015392;28;20041;-64
2021/08/13 06:44:34;;;;;;;3.90;1.73;;;;;;;21.40;56.18;99265.31;5000230;28;20144;-64
2021/08/13 06:47:02;;;;;;;2.80;1.73;;;;;;;21.39;55.30;99269.06;5048341;28;20117;-64
2021/08/13 06:49:28;;;;;;;7.57;1.90;;;;;;;20.97;56.44;99264.84;5031790;28;20045;-64
2021/08/13 06:51:53;;;;;;;6.20;2.05;;;;;;;21.07;56.68;99262.38;4998558;28;20440;-64
2021/08/13 06:54:20;;;;;;;3.28;1.65;;;;;;;21.35;55.86;99271.44;5031685;28;20048;-65
2021/08/13 06:56:46;;;;;;;3.10;1.58;;;;;;;21.34;55.26;99271.66;5015512;28;20135;-64
2021/08/13 06:59:11;;;;;;;2.65;1.83;;;;;;;21.82;54.32;99276.81;5015055;28;20052;-64
2021/08/13 07:01:37;;;;;;;2.33;1.45;;;;;;;22.19;53.86;99281.59;4998636;28;20047;-64
2021/08/13 07:04:03;;;;;;;3.05;1.55;;;;;;;22.35;51.52;99271.91;5015027;28;20049;-64
2021/08/13 07:06:29;;;;;;;3.45;1.38;;;;;;;21.94;52.33;99294.63;4998881;28;20509;-64
2021/08/13 07:08:56;;;;;;;3.97;1.80;;;;;;;21.74;53.56;99280.66;5015343;28;20045;-64
2021/08/13 07:11:25;;;;;;;2.70;1.73;;;;;;;21.76;53.39;99292.06;4999465;28;20102;-65
2021/08/13 07:13:51;;;;;;;4.03;1.48;;;;;;;21.80;53.43;99287.03;5048078;28;20455;-64
2021/08/13 07:16:16;;;;;;;5.78;2.03;;;;;;;22.10;53.54;99288.47;4998417;28;20053;-64
2021/08/13 07:18:42;;;;;;;3.85;2.70;;;;;;;22.38;52.14;99282.22;5048644;28;20098;-64
2021/08/13 07:21:16;;;;;;;3.95;1.65;;;;;;;23.07;50.85;99285.38;5017338;28;20049;-64
2021/08/13 07:23:57;;;;;;;4.50;1.80;;;;;;;23.68;48.92;99295.25;5033689;28;20535;-64
2021/08/13 07:26:23;;;;;;;4.03;1.75;;;;;;;23.62;48.57;99293.53;5031300;28;20057;-65
2021/08/13 07:28:48;;;;;;;6.65;1.77;;;;;;;23.60;49.02;99294.88;5031556;28;20393;-65
2021/08/13 07:31:14;;;;;;;2.50;1.70;;;;;;;23.26;49.46;99281.38;5031762;28;20049;-64
2021/08/13 07:33:48;;;;;;;3.58;1.70;;;;;;;23.14;49.87;99304.19;5017108;28;20094;-64
2021/08/13 07:36:14;;;;;;;4.55;2.03;;;;;;;23.09;50.61;99295.97;4999268;28;20130;-64
2021/08/13 07:38:40;;;;;;;2.47;1.80;;;;;;;22.51;51.39;99300.94;5019434;28;20103;-65
2021/08/13 07:41:08;;;;;;;6.68;1.83;;;;;;;22.17;52.14;99302.66;5019322;28;20130;-64
2021/08/13 07:43:34;;;;;;;3.45;1.88;;;;;;;21.94;52.90;99301.94;5018595;28;20501;-65
2021/08/13 07:46:00;;;;;;;5.22;1.70;;;;;;;21.71;53.23;99297.38;5051970;28;20053;-64
2021/08/13 07:48:26;;;;;;;6.55;1.90;;;;;;;20.97;54.90;99286.44;5035143;28;20037;-64
2021/08/13 07:50:52;;;;;;;4.97;2.00;;;;;;;20.98;55.83;99315.91;5018565;28;20417;-65
2021/08/13 07:53:18;;;;;;;4.40;2.38;;;;;;;21.01;56.43;99295.72;5018844;28;20696;-64
2021/08/13 07:55:44;;;;;;;5.55;2.22;;;;;;;21.16;55.85;99294.19;5019097;28;20056;-64
2021/08/13 07:58:10;;;;;;;2.25;1.70;;;;;;;21.55;55.34;99311.59;5002297;28;20041;-64
2021/08/13 08:00:36;;;;;;;5.55;2.28;;;;;;;22.10;53.71;99317.38;5018603;28;20051;-64
2021/08/13 08:03:02;;;;;;;9.40;5.05;;;;;;;22.98;51.54;99324.78;5018155;28;20037;-64
2021/08/13 08:05:28;;;;;;;2.40;1.67;;;;;;;23.24;48.67;99334.16;5035019;28;20040;-65
2021/08/13 08:07:53;;;;;;;9.20;2.10;;;;;;;23.26;49.41;99321.22;5032291;28;20040;-64
2021/08/13 08:10:20;;;;;;;3.13;1.50;;;;;;;22.90;49.20;99308.94;5051652;28;20493;-64
2021/08/13 08:12:46;;;;;;;5.05;3.03;;;;;;;21.91;51.77;99337.56;5052005;28;20041;-64
2021/08/13 08:15:12;;;;;;;8.55;2.53;;;;;;;22.24;51.41;99341.22;5034598;28;20497;-63
2021/08/13 08:17:38;;;;;;;3.28;2.17;;;;;;;22.46;50.73;99342.22;5017855;28;20202;-64
2021/08/13 08:20:05;;;;;;;2.88;1.80;;;;;;;22.41;50.72;99352.94;5034379;28;20077;-69
2021/08/13 08:22:31;;;;;;;2.88;1.80;;;;;;;23.00;49.93;99346.22;5051181;28;20186;-75
2021/08/13 08:25:17;;;;;;;2.67;1.70;;;;;;;23.40;49.58;99348.78;5035372;28;20071;-70
2021/08/13 08:27:43;;;;;;;2.35;2.10;;;;;;;23.04;49.73;99345.47;5034039;28;20417;-70
2021/08/13 08:30:09;;;;;;;2.72;1.92;;;;;;;22.50;50.82;99353.38;5034200;28;20699;-68
2021/08/13 08:32:34;;;;;;;2.88;1.90;;;;;;;21.85;52.40;99338.50;5030612;28;20049;-69
2021/08/13 08:35:00;;;;;;;4.40;2.22;;;;;;;21.46;54.26;99342.72;5033751;28;20485;-68
2021/08/13 08:37:26;;;;;;;4.70;2.17;;;;;;;21.51;54.75;99340.16;5034211;28;20037;-68
2021/08/13 08:39:52;;;;;;;7.75;2.33;;;;;;;21.67;54.58;99351.06;5034271;28;20413;-68
2021/08/13 08:42:19;;;;;;;5.50;2.40;;;;;;;22.46;53.26;99341.38;5017613;28;20041;-68
2021/08/13 08:44:45;;;;;;;6.60;2.00;;;;;;;23.60;49.64;99351.81;5050669;28;20060;-68
2021/08/13 08:47:12;;;;;;;6.97;2.58;;;;;;;24.42;47.51;99362.44;5033642;28;20079;-68
2021/08/13 08:49:39;;;;;;;7.80;1.98;;;;;;;24.66;45.85;99366.53;5016815;28;20481;-70
2021/08/13 08:52:09;;;;;;;4.47;2.13;;;;;;;24.78;46.02;99369.94;5051607;28;20037;-70
2021/08/13 08:54:36;;;;;;;3.95;1.90;;;;;;;24.65;45.67;99372.19;5049980;28;20182;-68
2021/08/13 08:57:06;;;;;;;5.28;2.40;;;;;;;26.00;42.93;99383.50;5033074;28;20037;-69
2021/08/13 08:59:32;;;;;;;3.17;1.80;;;;;;;27.09;40.61;99389.63;5049997;28;20043;-69
2021/08/13 09:01:59;;;;;;;5.18;1.90;;;;;;;28.57;37.58;99397.09;5016272;28;20570;-69
2021/08/13 09:04:25;;;;;;;3.78;1.70;;;;;;;30.16;34.32;99360.53;5032591;28;20055;-69
2021/08/13 09:06:51;;;;;;;2.88;1.90;;;;;;;29.67;34.50;99367.38;5032526;28;20037;-68
2021/08/13 09:09:17;;;;;;;3.45;1.80;;;;;;;28.72;35.30;99347.84;5016417;28;20068;-70
2021/08/13 09:11:43;;;;;;;6.22;2.13;;;;;;;29.67;33.99;99357.25;5016175;28;20128;-69
2021/08/13 09:14:11;;;;;;;5.10;1.80;;;;;;;30.03;32.95;99365.91;5016570;28;20041;-70
2021/08/13 09:16:37;;;;;;;3.53;1.90;;;;;;;29.73;33.94;99372.50;5048938;28;20052;-70
2021/08/13 09:19:05;;;;;;;3.78;1.50;;;;;;;28.51;35.48;99361.88;5030358;28;20533;-69
2021/08/13 09:21:32;;;;;;;3.60;1.58;;;;;;;27.00;38.04;99369.44;5015088;28;20496;-70
2021/08/13 09:24:00;;;;;;;6.07;1.63;;;;;;;25.64;40.21;99352.50;5067004;28;20040;-69
2021/08/13 09:26:28;;;;;;;8.15;1.70;;;;;;;24.45;43.31;99355.66;5067866;28;20041;-69
2021/08/13 09:29:10;;;;;;;4.85;2.13;;;;;;;24.75;43.89;99373.19;5067025;28;20060;-69
2021/08/13 09:31:55;;;;;;;3.33;2.30;;;;;;;27.81;37.26;99382.81;5037117;28;20071;-69
2021/08/13 09:34:39;;;;;;;3.45;1.83;;;;;;;30.03;33.58;99390.56;5054784;28;20051;-69
2021/08/13 09:37:14;;;;;;;6.20;1.95;;;;;;;32.69;28.82;99389.91;5068708;28;20523;-69
2021/08/13 09:39:40;;;;;;;2.45;1.70;;;;;;;34.86;25.99;99370.16;5069418;28;20033;-70
2021/08/13 09:42:07;;;;;;;3.97;1.67;;;;;;;36.55;23.43;99367.38;5035838;28;20045;-70
2021/08/13 09:44:34;;;;;;;3.40;1.67;;;;;;;36.73;22.60;99366.16;5052858;28;20037;-71
2021/08/13 09:47:05;;;;;;;8.13;1.90;;;;;;;37.19;22.28;99371.50;5052238;28;20154;-70
2021/08/13 09:49:33;;;;;;;5.53;2.20;;;;;;;37.76;21.03;99384.69;5036117;28;20094;-70
2021/08/13 09:52:28;;;;;;;3.58;1.92;;;;;;;38.83;19.64;99380.38;5035805;28;20044;-70
2021/08/13 09:55:14;;;;;;;3.85;2.00;;;;;;;39.87;18.28;99378.31;5038376;28;20054;-70
2021/08/13 09:57:48;;;;;;;5.07;2.00;;;;;;;39.92;17.92;99369.69;5052590;28;20056;-70
2021/08/13 10:00:16;;;;;;;3.35;2.00;;;;;;;40.30;18.32;99378.25;5035570;28;20044;-71
2021/08/13 10:02:45;;;;;;;6.10;2.00;;;;;;;38.66;19.31;99367.56;5069022;28;20069;-70
2021/08/13 10:05:19;;;;;;;5.00;3.20;;;;;;;36.95;21.59;99370.56;5068789;28;20052;-71
2021/08/13 10:07:48;;;;;;;8.65;2.00;;;;;;;35.42;23.39;99361.75;5035790;28;20044;-71
2021/08/13 10:10:14;;;;;;;;;;;;;;;34.87;24.38;99382.88;5068074;28;20056;-70
2021/08/13 10:12:45;;;;;;;6.32;2.22;;;;;;;33.98;25.87;99379.59;5019657;28;19942;-70
2021/08/13 10:15:35;;;;;;;7.32;1.95;;;;;;;32.88;26.76;99367.75;5036820;28;20130;-71
2021/08/13 10:18:14;;;;;;;8.70;1.90;;;;;;;32.02;28.31;99390.69;5034197;28;20048;-70
2021/08/13 10:20:55;;;;;;;3.20;1.80;;;;;;;31.78;28.74;99379.88;5050148;28;20059;-71
2021/08/13 10:23:31;;;;;;;3.53;2.10;;;;;;;31.65;28.46;99388.03;5042095;28;20102;-69
2021/08/13 10:25:59;;;;;;;2.35;2.03;;;;;;;31.61;28.75;99382.38;5031983;28;20447;-70
2021/08/13 10:28:37;;;;;;;4.82;2.03;;;;;;;30.97;29.70;99385.81;5034788;28;20103;-70
2021/08/13 10:31:11;;;;;;;5.68;2.67;;;;;;;29.85;31.46;99394.00;5000660;28;20041;-70
2021/08/13 10:33:46;;;;;;;4.50;2.17;;;;;;;28.77;33.50;99405.19;5022878;28;20048;-70
2021/08/13 10:36:18;;;;;;;6.45;2.40;;;;;;;28.12;34.86;99405.44;5048214;28;20041;-69
2021/08/13 10:38:48;;;;;;;20.17;8.02;;;;;;;28.43;35.26;99406.16;5041803;28;20147;-69
2021/08/13 10:41:18;;;;;;;13.27;8.63;;;;;;;30.52;31.21;99407.53;5041852;28;20202;-68
2021/08/13 10:43:46;;;;;;;7.72;4.40;;;;;;;33.09;27.53;99427.53;5035303;28;20326;-72
2021/08/13 10:46:16;;;;;;;5.03;2.53;;;;;;;35.09;24.53;99424.09;5035687;28;20044;-72
2021/08/13 10:48:45;;;;;;;6.20;2.38;;;;;;;36.30;22.56;99422.88;5034454;28;20045;-72
2021/08/13 10:51:11;;;;;;;6.40;3.37;;;;;;;37.21;21.42;99421.06;5049825;28;20039;-72
2021/08/13 10:53:38;;;;;;;3.90;2.58;;;;;;;37.09;21.70;99416.22;5017582;28;20036;-72
2021/08/13 10:56:41;;;;;;;4.85;3.28;;;;;;;36.24;22.23;99424.97;5033486;28;20036;-72
2021/08/13 10:59:12;;;;;;;4.28;2.97;;;;;;;36.03;22.84;99420.50;5031381;28;20160;-72
2021/08/13 11:02:15;;;;;;;3.95;2.20;;;;;;;35.38;23.18;99421.53;5033424;28;20512;-72
2021/08/13 11:04:48;;;;;;;5.68;2.90;;;;;;;34.97;23.40;99436.91;5044800;28;20131;-72
2021/08/13 11:07:52;;;;;;;3.85;2.65;;;;;;;34.36;24.24;99432.31;5031612;28;20143;-72
2021/08/13 11:10:37;;;;;;;6.43;2.70;;;;;;;33.70;24.86;99415.91;5031355;28;20140;-73
2021/08/13 11:13:12;;;;;;;7.68;2.60;;;;;;;33.87;24.66;99427.03;5014776;28;20047;-71
2021/08/13 11:15:40;;;;;;;3.83;2.45;;;;;;;33.62;25.61;99425.72;5031618;28;20504;-71
2021/08/13 11:18:41;;;;;;;11.00;7.95;;;;;;;34.41;24.87;99431.41;5031369;28;20052;-72
2021/08/13 11:21:09;;;;;;;3.88;2.78;;;;;;;35.65;23.56;99437.78;5030888;28;20092;-72
2021/08/13 11:24:09;;;;;;;10.07;2.95;;;;;;;36.02;22.57;99436.28;5031445;28;20041;-72
2021/08/13 11:26:51;;;;;;;4.97;2.53;;;;;;;34.91;23.42;99435.44;5028253;28;20049;-72
2021/08/13 11:29:30;;;;;;;3.63;2.47;;;;;;;33.96;24.17;99436.19;5031227;28;20037;-74
2021/08/13 11:32:10;;;;;;;7.72;2.63;;;;;;;33.19;25.25;99424.56;5015644;28;20464;-71
2021/08/13 11:35:01;;;;;;;6.28;2.30;;;;;;;32.54;25.96;99429.53;5015296;28;20041;-71
2021/08/13 11:37:37;;;;;;;10.23;6.82;;;;;;;32.04;26.92;99433.25;5041197;28;20698;-71
2021/08/13 11:40:05;;;;;;;4.30;2.80;;;;;;;31.62;27.84;99429.84;5025863;28;20420;-71
2021/08/13 11:42:32;;;;;;;4.03;2.22;;;;;;;31.47;28.71;99433.66;5030799;28;20447;-72
2021/08/13 11:45:07;;;;;;;6.32;2.55;;;;;;;31.13;29.66;99431.13;5014842;28;20052;-71